createdAt,value
2023-04-17T00:00:25.787Z,26.98
2023-04-17T00:01:25.795Z,26.98
2023-04-17T00:02:26.044Z,27.00
2023-04-17T00:03:25.913Z,26.99
2023-04-17T00:04:25.884Z,27.00
2023-04-17T00:05:25.843Z,26.98
2023-04-17T00:06:25.826Z,26.98
2023-04-17T00:07:25.832Z,26.98
2023-04-17T00:08:25.841Z,26.99
2023-04-17T00:09:25.833Z,26.98
2023-04-17T00:10:25.849Z,26.99
2023-04-17T00:11:25.853Z,26.98
2023-04-17T00:12:25.852Z,26.98
2023-04-17T00:13:25.852Z,26.99
2023-04-17T00:14:25.869Z,26.96
2023-04-17T00:15:25.879Z,26.98
2023-04-17T00:16:25.895Z,26.98
2023-04-17T00:17:25.888Z,26.98
2023-04-17T00:18:25.893Z,27.01
2023-04-17T00:19:25.894Z,26.99
2023-04-17T00:20:25.913Z,27.00
2023-04-17T00:21:25.914Z,27.00
2023-04-17T00:22:25.928Z,26.98
2023-04-17T00:23:25.958Z,26.98
2023-04-17T00:24:25.988Z,26.98
2023-04-17T00:25:26.023Z,26.99
2023-04-17T00:26:26.041Z,26.98
2023-04-17T00:27:26.070Z,26.97
2023-04-17T00:28:26.095Z,27.00
2023-04-17T00:29:26.137Z,27.00
2023-04-17T00:30:26.174Z,27.00
2023-04-17T00:31:26.210Z,27.01
2023-04-17T00:32:26.248Z,27.00
2023-04-17T00:33:26.254Z,27.00
2023-04-17T00:34:26.288Z,26.99
2023-04-17T00:35:26.331Z,26.99
2023-04-17T00:36:26.350Z,27.00
2023-04-17T00:37:26.391Z,26.99
2023-04-17T00:38:26.416Z,27.00
2023-04-17T00:39:26.445Z,26.98
2023-04-17T00:40:26.477Z,26.98
2023-04-17T00:41:26.512Z,26.97
2023-04-17T00:42:26.530Z,26.96
2023-04-17T00:43:26.550Z,26.98
2023-04-17T00:44:26.554Z,26.99
2023-04-17T00:45:26.607Z,27.01
2023-04-17T00:46:26.630Z,26.98
2023-04-17T00:47:26.629Z,26.99
2023-04-17T00:48:26.623Z,26.99
2023-04-17T00:49:26.618Z,26.97
2023-04-17T00:50:26.620Z,26.97
2023-04-17T00:51:26.622Z,26.98
2023-04-17T00:52:26.671Z,26.98
2023-04-17T00:53:26.619Z,26.98
2023-04-17T00:54:26.634Z,26.98
2023-04-17T00:55:26.633Z,26.98
2023-04-17T00:56:26.645Z,26.98
2023-04-17T00:57:26.708Z,26.98
2023-04-17T00:58:26.631Z,26.98
2023-04-17T00:59:26.645Z,26.98
2023-04-17T01:00:26.654Z,26.97
2023-04-17T01:01:26.682Z,26.98
2023-04-17T01:02:26.921Z,26.97
2023-04-17T01:03:26.704Z,26.97
2023-04-17T01:04:26.794Z,26.98
2023-04-17T01:05:26.657Z,26.99
2023-04-17T01:06:26.666Z,27.01
2023-04-17T01:07:26.662Z,26.99
2023-04-17T01:08:26.682Z,27.00
2023-04-17T01:09:26.691Z,26.98
2023-04-17T01:10:26.685Z,26.99
2023-04-17T01:11:26.692Z,27.01
2023-04-17T01:12:26.664Z,27.01
2023-04-17T01:13:26.701Z,27.00
2023-04-17T01:14:26.713Z,26.97
2023-04-17T01:15:26.736Z,26.98
2023-04-17T01:16:26.907Z,26.98
2023-04-17T01:17:26.817Z,26.96
2023-04-17T01:18:26.821Z,26.97
2023-04-17T01:19:26.840Z,26.98
2023-04-17T01:20:26.873Z,26.96
2023-04-17T01:21:26.910Z,26.96
2023-04-17T01:22:26.928Z,26.96
2023-04-17T01:23:26.953Z,26.98
2023-04-17T01:24:26.988Z,26.97
2023-04-17T01:25:27.059Z,26.95
2023-04-17T01:26:27.064Z,26.97
2023-04-17T01:27:27.086Z,26.98
2023-04-17T01:28:27.115Z,26.96
2023-04-17T01:29:27.160Z,26.97
2023-04-17T01:30:27.280Z,26.98
2023-04-17T01:31:27.370Z,26.97
2023-04-17T01:32:27.283Z,26.97
2023-04-17T01:33:27.269Z,26.97
2023-04-17T01:34:27.302Z,26.98
2023-04-17T01:35:27.347Z,26.99
2023-04-17T01:36:27.360Z,26.99
2023-04-17T01:37:27.388Z,26.99
2023-04-17T01:38:27.409Z,26.98
2023-04-17T01:39:27.440Z,26.98
2023-04-17T01:40:27.459Z,26.96
2023-04-17T01:41:27.485Z,26.96
2023-04-17T01:42:27.516Z,26.97
2023-04-17T01:43:27.547Z,26.98
2023-04-17T01:44:27.590Z,26.96
2023-04-17T01:45:27.615Z,26.97
2023-04-17T01:46:27.694Z,26.96
2023-04-17T01:47:27.688Z,26.99
2023-04-17T01:48:27.700Z,26.97
2023-04-17T01:49:27.742Z,26.98
2023-04-17T01:50:27.802Z,26.98
2023-04-17T01:51:27.791Z,26.97
2023-04-17T01:52:27.810Z,27.00
2023-04-17T01:53:27.844Z,26.97
2023-04-17T01:54:27.886Z,27.00
2023-04-17T01:55:27.916Z,26.99
2023-04-17T01:56:27.940Z,26.99
2023-04-17T01:57:27.959Z,26.98
2023-04-17T01:58:27.992Z,26.98
2023-04-17T01:59:28.036Z,26.99
2023-04-17T02:00:28.064Z,26.99
2023-04-17T02:01:28.107Z,26.99
2023-04-17T02:02:28.238Z,26.98
2023-04-17T02:03:28.369Z,26.97
2023-04-17T02:04:28.239Z,26.97
2023-04-17T02:05:28.209Z,26.96
2023-04-17T02:06:28.255Z,26.98
2023-04-17T02:07:28.281Z,26.99
2023-04-17T02:08:28.315Z,27.01
2023-04-17T02:09:28.347Z,26.99
2023-04-17T02:10:28.386Z,26.99
2023-04-17T02:11:28.446Z,27.00
2023-04-17T02:12:28.453Z,26.99
2023-04-17T02:13:28.497Z,27.01
2023-04-17T02:14:28.534Z,26.98
2023-04-17T02:15:28.562Z,27.01
2023-04-17T02:16:28.702Z,27.00
2023-04-17T02:17:28.665Z,26.98
2023-04-17T02:18:28.687Z,26.97
2023-04-17T02:19:28.712Z,26.97
2023-04-17T02:20:28.748Z,26.97
2023-04-17T02:21:28.784Z,26.97
2023-04-17T02:22:28.821Z,26.97
2023-04-17T02:23:28.850Z,26.96
2023-04-17T02:24:28.888Z,26.97
2023-04-17T02:25:28.919Z,26.99
2023-04-17T02:26:28.954Z,26.97
2023-04-17T02:27:28.982Z,26.98
2023-04-17T02:28:29.022Z,27.00
2023-04-17T02:29:29.063Z,26.97
2023-04-17T02:30:29.094Z,26.98
2023-04-17T02:31:29.187Z,26.97
2023-04-17T02:32:29.186Z,26.98
2023-04-17T02:33:29.199Z,26.98
2023-04-17T02:34:29.240Z,26.98
2023-04-17T02:35:29.272Z,26.98
2023-04-17T02:36:29.276Z,26.99
2023-04-17T02:37:29.283Z,26.97
2023-04-17T02:38:29.263Z,26.97
2023-04-17T02:39:29.257Z,26.97
2023-04-17T02:40:29.261Z,26.97
2023-04-17T02:41:29.264Z,26.98
2023-04-17T02:42:29.261Z,26.98
2023-04-17T02:43:29.261Z,26.98
2023-04-17T02:44:29.261Z,26.96
2023-04-17T02:45:29.257Z,26.96
2023-04-17T02:46:29.323Z,26.96
2023-04-17T02:47:29.280Z,26.99
2023-04-17T02:48:29.258Z,26.97
2023-04-17T02:49:29.246Z,26.98
2023-04-17T02:50:29.241Z,26.96
2023-04-17T02:51:29.277Z,26.96
2023-04-17T02:52:29.318Z,26.99
2023-04-17T02:53:29.358Z,27.00
2023-04-17T02:54:29.410Z,26.97
2023-04-17T02:55:29.465Z,26.98
2023-04-17T02:56:29.521Z,27.00
2023-04-17T02:57:29.553Z,26.97
2023-04-17T02:58:29.603Z,26.96
2023-04-17T02:59:29.777Z,26.63
2023-04-17T03:00:29.696Z,26.38
2023-04-17T03:01:29.853Z,26.24
2023-04-17T03:02:29.904Z,26.15
2023-04-17T03:03:30.078Z,26.06
2023-04-17T03:04:29.938Z,25.97
2023-04-17T03:05:30.003Z,25.90
2023-04-17T03:06:30.047Z,25.85
2023-04-17T03:07:30.050Z,25.80
2023-04-17T03:08:31.853Z,25.77
2023-04-17T03:09:30.071Z,25.71
2023-04-17T03:10:30.056Z,25.72
2023-04-17T03:11:30.067Z,25.68
2023-04-17T03:12:30.075Z,25.60
2023-04-17T03:13:30.069Z,25.56
2023-04-17T03:14:30.074Z,25.56
2023-04-17T03:15:30.060Z,25.52
2023-04-17T03:16:30.127Z,25.48
2023-04-17T03:17:30.089Z,25.45
2023-04-17T03:18:30.070Z,25.42
2023-04-17T03:19:30.061Z,25.41
2023-04-17T03:20:30.079Z,25.37
2023-04-17T03:21:30.072Z,25.34
2023-04-17T03:22:30.076Z,25.34
2023-04-17T03:23:30.081Z,25.31
2023-04-17T03:24:30.083Z,25.29
2023-04-17T03:25:30.073Z,25.26
2023-04-17T03:26:30.082Z,25.30
2023-04-17T03:27:30.068Z,25.27
2023-04-17T03:28:30.069Z,25.24
2023-04-17T03:29:30.083Z,25.22
2023-04-17T03:30:30.085Z,25.18
2023-04-17T03:31:30.113Z,25.18
2023-04-17T03:32:30.131Z,25.19
2023-04-17T03:33:30.096Z,25.15
2023-04-17T03:34:30.092Z,25.17
2023-04-17T03:35:30.103Z,25.16
2023-04-17T03:36:30.138Z,25.13
2023-04-17T03:37:30.115Z,25.15
2023-04-17T03:38:30.119Z,25.12
2023-04-17T03:39:30.158Z,25.12
2023-04-17T03:40:31.447Z,25.10
2023-04-17T03:41:30.242Z,25.09
2023-04-17T03:42:30.300Z,25.06
2023-04-17T03:43:30.358Z,25.07
2023-04-17T03:44:30.415Z,25.06
2023-04-17T03:45:30.477Z,25.01
2023-04-17T03:46:30.630Z,25.01
2023-04-17T03:47:30.626Z,25.02
2023-04-17T03:48:30.666Z,24.99
2023-04-17T03:49:30.704Z,24.97
2023-04-17T03:50:30.774Z,24.98
2023-04-17T03:51:30.843Z,24.95
2023-04-17T03:52:30.895Z,25.01
2023-04-17T03:53:30.993Z,25.00
2023-04-17T03:54:31.026Z,24.97
2023-04-17T03:55:31.084Z,24.96
2023-04-17T03:56:31.154Z,24.94
2023-04-17T03:57:31.205Z,24.93
2023-04-17T03:58:31.305Z,24.93
2023-04-17T03:59:31.349Z,24.88
2023-04-17T04:00:31.414Z,24.93
2023-04-17T04:01:31.484Z,24.92
2023-04-17T04:02:31.637Z,24.95
2023-04-17T04:03:31.804Z,24.92
2023-04-17T04:04:31.742Z,24.95
2023-04-17T04:05:31.559Z,24.93
2023-04-17T04:06:31.573Z,24.92
2023-04-17T04:07:31.584Z,24.92
2023-04-17T04:08:31.587Z,24.91
2023-04-17T04:09:31.580Z,24.93
2023-04-17T04:10:31.596Z,24.90
2023-04-17T04:11:31.652Z,24.93
2023-04-17T04:12:31.719Z,24.92
2023-04-17T04:13:31.783Z,24.93
2023-04-17T04:14:31.840Z,24.94
2023-04-17T04:15:31.922Z,24.93
2023-04-17T04:16:32.015Z,24.94
2023-04-17T04:17:32.078Z,24.97
2023-04-17T04:18:32.136Z,24.97
2023-04-17T04:19:32.215Z,24.98
2023-04-17T04:20:32.291Z,24.95
2023-04-17T04:21:32.361Z,24.97
2023-04-17T04:22:32.420Z,24.96
2023-04-17T04:23:32.482Z,24.96
2023-04-17T04:24:32.560Z,24.95
2023-04-17T04:25:32.640Z,24.96
2023-04-17T04:26:32.734Z,24.97
2023-04-17T04:27:32.801Z,24.97
2023-04-17T04:28:32.839Z,24.94
2023-04-17T04:29:32.905Z,24.95
2023-04-17T04:30:32.939Z,24.95
2023-04-17T04:31:33.038Z,24.94
2023-04-17T04:32:33.135Z,24.96
2023-04-17T04:33:33.068Z,24.95
2023-04-17T04:34:33.073Z,24.96
2023-04-17T04:35:33.114Z,24.97
2023-04-17T04:36:33.193Z,24.95
2023-04-17T04:37:33.210Z,24.97
2023-04-17T04:38:33.406Z,24.98
2023-04-17T04:39:33.244Z,24.97
2023-04-17T04:40:33.300Z,25.02
2023-04-17T04:41:33.321Z,25.01
2023-04-17T04:42:33.381Z,25.03
2023-04-17T04:43:33.444Z,25.05
2023-04-17T04:44:33.446Z,25.08
2023-04-17T04:45:33.440Z,25.07
2023-04-17T04:46:33.485Z,25.06
2023-04-17T04:47:33.535Z,25.07
2023-04-17T04:48:33.506Z,25.10
2023-04-17T04:49:33.482Z,25.09
2023-04-17T04:50:33.506Z,25.14
2023-04-17T04:51:33.513Z,25.13
2023-04-17T04:52:33.546Z,25.14
2023-04-17T04:53:33.538Z,25.15
2023-04-17T04:54:33.548Z,25.16
2023-04-17T04:55:33.560Z,25.18
2023-04-17T04:56:33.564Z,25.19
2023-04-17T04:57:33.573Z,25.20
2023-04-17T04:58:33.587Z,25.19
2023-04-17T04:59:33.588Z,25.17
2023-04-17T05:00:33.606Z,25.18
2023-04-17T05:01:33.673Z,25.19
2023-04-17T05:02:33.910Z,25.19
2023-04-17T05:03:33.800Z,25.20
2023-04-17T05:04:33.742Z,25.19
2023-04-17T05:05:33.660Z,25.23
2023-04-17T05:06:33.690Z,25.25
2023-04-17T05:07:33.680Z,25.23
2023-04-17T05:08:33.678Z,25.20
2023-04-17T05:09:33.668Z,25.21
2023-04-17T05:10:33.684Z,25.23
2023-04-17T05:11:33.704Z,25.26
2023-04-17T05:12:33.710Z,25.33
2023-04-17T05:13:33.711Z,25.44
2023-04-17T05:14:33.714Z,25.54
2023-04-17T05:15:33.740Z,25.65
2023-04-17T05:16:33.759Z,25.72
2023-04-17T05:17:33.763Z,25.73
2023-04-17T05:18:33.753Z,25.70
2023-04-17T05:19:33.770Z,25.67
2023-04-17T05:20:33.791Z,25.64
2023-04-17T05:21:33.830Z,25.62
2023-04-17T05:22:33.895Z,25.61
2023-04-17T05:23:33.921Z,25.61
2023-04-17T05:24:33.977Z,25.57
2023-04-17T05:25:34.014Z,25.57
2023-04-17T05:26:34.086Z,25.57
2023-04-17T05:27:34.115Z,25.55
2023-04-17T05:28:34.139Z,25.54
2023-04-17T05:29:34.171Z,25.53
2023-04-17T05:30:34.218Z,25.52
2023-04-17T05:31:34.320Z,25.84
2023-04-17T05:32:34.369Z,26.01
2023-04-17T05:33:34.676Z,26.11
2023-04-17T05:34:34.437Z,26.43
2023-04-17T05:35:34.477Z,26.31
2023-04-17T05:36:34.481Z,26.59
2023-04-17T05:37:34.493Z,27.39
2023-04-17T05:38:34.505Z,28.01
2023-04-17T05:39:34.524Z,28.25
2023-04-17T05:40:34.537Z,28.46
2023-04-17T05:41:34.541Z,28.27
2023-04-17T05:42:34.529Z,28.55
2023-04-17T05:43:34.529Z,28.72
2023-04-17T05:44:34.525Z,30.33
2023-04-17T05:45:34.593Z,28.78
2023-04-17T05:46:34.533Z,28.55
2023-04-17T05:47:34.576Z,28.71
2023-04-17T05:48:34.609Z,28.99
2023-04-17T05:49:34.554Z,29.01
2023-04-17T05:50:34.581Z,29.26
2023-04-17T05:51:34.567Z,29.25
2023-04-17T05:52:34.560Z,27.18
2023-04-17T05:53:34.564Z,27.60
2023-04-17T05:54:34.575Z,27.67
2023-04-17T05:55:34.584Z,28.36
2023-04-17T05:56:34.597Z,28.18
2023-04-17T05:57:34.618Z,28.13
2023-04-17T05:58:34.620Z,27.89
2023-04-17T05:59:34.639Z,28.29
2023-04-17T06:00:34.659Z,28.59
2023-04-17T06:01:34.678Z,29.18
2023-04-17T06:02:34.818Z,29.64
2023-04-17T06:03:35.052Z,29.49
2023-04-17T06:04:34.984Z,29.96
2023-04-17T06:05:34.893Z,29.47
2023-04-17T06:06:34.944Z,29.80
2023-04-17T06:07:34.973Z,29.63
2023-04-17T06:08:35.007Z,29.73
2023-04-17T06:09:35.012Z,29.59
2023-04-17T06:10:35.072Z,29.54
2023-04-17T06:11:35.143Z,29.70
2023-04-17T06:12:35.205Z,29.85
2023-04-17T06:13:35.268Z,29.70
2023-04-17T06:14:35.368Z,29.64
2023-04-17T06:15:35.331Z,29.66
2023-04-17T06:16:35.394Z,29.65
2023-04-17T06:17:35.444Z,29.54
2023-04-17T06:18:35.515Z,29.75
2023-04-17T06:19:35.607Z,29.59
2023-04-17T06:20:36.573Z,29.65
2023-04-17T06:21:35.646Z,29.59
2023-04-17T06:22:35.687Z,29.25
2023-04-17T06:23:35.676Z,28.13
2023-04-17T06:24:35.704Z,28.68
2023-04-17T06:25:35.702Z,27.90
2023-04-17T06:26:35.710Z,27.15
2023-04-17T06:27:36.944Z,27.38
2023-04-17T06:28:35.747Z,27.65
2023-04-17T06:29:35.749Z,27.76
2023-04-17T06:30:35.879Z,27.53
2023-04-17T06:31:35.827Z,27.71
2023-04-17T06:32:35.780Z,27.10
2023-04-17T06:33:35.796Z,26.92
2023-04-17T06:34:38.183Z,26.54
2023-04-17T06:35:36.814Z,26.71
2023-04-17T06:36:35.822Z,26.79
2023-04-17T06:37:35.830Z,26.68
2023-04-17T06:38:35.837Z,26.99
2023-04-17T06:39:35.849Z,27.05
2023-04-17T06:40:35.870Z,26.90
2023-04-17T06:41:35.927Z,26.61
2023-04-17T06:42:35.891Z,27.61
2023-04-17T06:43:35.918Z,27.95
2023-04-17T06:44:35.929Z,28.73
2023-04-17T06:45:35.946Z,28.73
2023-04-17T06:46:36.045Z,28.57
2023-04-17T06:47:36.090Z,28.70
2023-04-17T06:48:36.067Z,28.69
2023-04-17T06:49:36.076Z,28.80
2023-04-17T06:50:36.114Z,28.85
2023-04-17T06:51:36.201Z,28.86
2023-04-17T06:52:36.245Z,29.01
2023-04-17T06:53:36.340Z,28.96
2023-04-17T06:54:36.311Z,28.61
2023-04-17T06:55:36.325Z,28.65
2023-04-17T06:56:36.326Z,28.52
2023-04-17T06:57:36.327Z,28.42
2023-04-17T06:58:36.330Z,28.32
2023-04-17T06:59:36.327Z,28.25
2023-04-17T07:00:36.360Z,28.20
2023-04-17T07:01:36.447Z,28.22
2023-04-17T07:02:36.465Z,28.22
2023-04-17T07:03:36.520Z,28.19
2023-04-17T07:04:36.390Z,28.17
2023-04-17T07:05:36.372Z,28.17
2023-04-17T07:06:36.380Z,28.18
2023-04-17T07:07:36.374Z,28.30
2023-04-17T07:08:36.374Z,28.26
2023-04-17T07:09:36.384Z,28.32
2023-04-17T07:10:36.399Z,28.33
2023-04-17T07:11:36.395Z,28.37
2023-04-17T07:12:36.403Z,28.36
2023-04-17T07:13:36.425Z,28.34
2023-04-17T07:14:36.398Z,28.35
2023-04-17T07:15:36.445Z,28.44
2023-04-17T07:16:36.493Z,28.46
2023-04-17T07:17:36.569Z,28.47
2023-04-17T07:18:36.559Z,28.44
2023-04-17T07:19:36.615Z,28.49
2023-04-17T07:20:36.636Z,28.48
2023-04-17T07:21:36.622Z,28.51
2023-04-17T07:22:36.616Z,28.51
2023-04-17T07:23:36.621Z,28.53
2023-04-17T07:24:36.630Z,28.57
2023-04-17T07:25:36.629Z,28.62
2023-04-17T07:26:36.632Z,28.66
2023-04-17T07:27:36.607Z,28.66
2023-04-17T07:28:36.609Z,28.66
2023-04-17T07:29:36.615Z,28.71
2023-04-17T07:30:36.617Z,28.68
2023-04-17T07:31:36.635Z,28.68
2023-04-17T07:32:36.656Z,28.63
2023-04-17T07:33:38.234Z,28.65
2023-04-17T07:34:36.601Z,28.64
2023-04-17T07:35:36.610Z,28.76
2023-04-17T07:36:36.628Z,28.24
2023-04-17T07:37:36.587Z,28.33
2023-04-17T07:38:37.269Z,28.21
2023-04-17T07:39:36.608Z,28.20
2023-04-17T07:40:36.603Z,28.32
2023-04-17T07:41:36.589Z,28.32
2023-04-17T07:42:36.577Z,27.96
2023-04-17T07:43:36.620Z,27.68
2023-04-17T07:44:36.598Z,27.40
2023-04-17T07:45:37.026Z,27.74
2023-04-17T07:46:36.667Z,27.46
2023-04-17T07:47:36.712Z,27.63
2023-04-17T07:48:36.698Z,27.27
2023-04-17T07:49:36.770Z,27.42
2023-04-17T07:50:36.849Z,27.38
2023-04-17T07:51:36.902Z,26.95
2023-04-17T07:52:36.947Z,27.18
2023-04-17T07:53:36.952Z,27.33
2023-04-17T07:54:36.993Z,27.02
2023-04-17T07:55:36.925Z,27.12
2023-04-17T07:56:36.921Z,26.90
2023-04-17T07:57:36.923Z,26.82
2023-04-17T07:58:36.904Z,26.82
2023-04-17T07:59:36.908Z,27.03
2023-04-17T08:00:36.918Z,27.18
2023-04-17T08:01:36.997Z,27.24
2023-04-17T08:02:37.057Z,27.10
2023-04-17T08:03:37.081Z,27.15
2023-04-17T08:04:37.022Z,27.21
2023-04-17T08:05:37.044Z,27.23
2023-04-17T08:06:37.061Z,27.11
2023-04-17T08:07:37.101Z,27.27
2023-04-17T08:08:37.114Z,27.29
2023-04-17T08:09:37.158Z,27.29
2023-04-17T08:10:37.174Z,27.36
2023-04-17T08:11:49.541Z,27.40
2023-04-17T08:12:38.214Z,26.89
2023-04-17T08:13:37.216Z,27.35
2023-04-17T08:14:37.192Z,27.49
2023-04-17T08:15:39.449Z,27.61
2023-04-17T08:16:37.198Z,27.65
2023-04-17T08:17:37.210Z,27.56
2023-04-17T08:18:37.172Z,27.52
2023-04-17T08:19:37.174Z,27.54
2023-04-17T08:20:37.173Z,27.51
2023-04-17T08:21:37.162Z,27.60
2023-04-17T08:22:37.174Z,27.40
2023-04-17T08:23:37.200Z,27.57
2023-04-17T08:24:37.259Z,27.66
2023-04-17T08:25:37.219Z,27.71
2023-04-17T08:26:37.193Z,27.68
2023-04-17T08:27:37.180Z,27.66
2023-04-17T08:28:37.190Z,27.60
2023-04-17T08:29:37.175Z,27.81
2023-04-17T08:30:37.244Z,27.69
2023-04-17T08:31:37.180Z,27.24
2023-04-17T08:32:37.170Z,27.00
2023-04-17T08:33:37.150Z,26.57
2023-04-17T08:34:37.149Z,26.67
2023-04-17T08:35:37.162Z,26.74
2023-04-17T08:36:37.154Z,26.65
2023-04-17T08:37:37.164Z,26.72
2023-04-17T08:38:37.163Z,26.97
2023-04-17T08:39:37.180Z,26.37
2023-04-17T08:40:37.195Z,26.75
2023-04-17T08:41:37.200Z,26.81
2023-04-17T08:42:37.192Z,26.45
2023-04-17T08:43:37.212Z,26.49
2023-04-17T08:44:37.223Z,26.43
2023-04-17T08:45:37.216Z,26.26
2023-04-17T08:46:37.286Z,26.21
2023-04-17T08:47:37.297Z,26.32
2023-04-17T08:48:37.282Z,27.07
2023-04-17T08:49:37.317Z,27.20
2023-04-17T08:50:37.318Z,27.16
2023-04-17T08:51:37.343Z,27.09
2023-04-17T08:52:37.349Z,27.44
2023-04-17T08:53:37.356Z,27.75
2023-04-17T08:54:37.368Z,27.73
2023-04-17T08:55:37.434Z,28.01
2023-04-17T08:56:37.465Z,28.03
2023-04-17T08:57:37.549Z,28.28
2023-04-17T08:58:37.603Z,28.32
2023-04-17T08:59:37.666Z,28.27
2023-04-17T09:00:37.737Z,28.16
2023-04-17T09:01:37.912Z,28.33
2023-04-17T09:02:37.896Z,28.33
2023-04-17T09:03:37.820Z,28.29
2023-04-17T09:04:37.987Z,28.26
2023-04-17T09:05:37.755Z,27.77
2023-04-17T09:06:37.751Z,28.06
2023-04-17T09:07:37.752Z,28.15
2023-04-17T09:08:37.769Z,28.28
2023-04-17T09:09:37.759Z,28.34
2023-04-17T09:10:37.775Z,28.30
2023-04-17T09:11:37.754Z,28.31
2023-04-17T09:12:37.740Z,28.24
2023-04-17T09:13:37.759Z,28.24
2023-04-17T09:14:37.757Z,28.22
2023-04-17T09:15:37.767Z,28.23
2023-04-17T09:16:37.763Z,28.15
2023-04-17T09:17:37.858Z,28.15
2023-04-17T09:18:37.823Z,28.20
2023-04-17T09:19:37.845Z,28.16
2023-04-17T09:20:37.876Z,28.17
2023-04-17T09:21:37.920Z,27.98
2023-04-17T09:22:37.962Z,28.03
2023-04-17T09:23:38.020Z,28.03
2023-04-17T09:24:38.065Z,28.04
2023-04-17T09:25:38.095Z,28.04
2023-04-17T09:26:38.125Z,28.03
2023-04-17T09:27:38.166Z,27.99
2023-04-17T09:28:38.190Z,28.04
2023-04-17T09:29:38.246Z,28.10
2023-04-17T09:30:38.310Z,28.18
2023-04-17T09:31:38.340Z,28.15
2023-04-17T09:32:38.412Z,28.18
2023-04-17T09:33:38.401Z,28.22
2023-04-17T09:34:38.378Z,28.25
2023-04-17T09:35:39.874Z,28.15
2023-04-17T09:36:38.389Z,28.08
2023-04-17T09:37:38.360Z,27.98
2023-04-17T09:38:38.363Z,27.92
2023-04-17T09:39:38.360Z,27.95
2023-04-17T09:40:38.360Z,27.99
2023-04-17T09:41:38.344Z,28.04
2023-04-17T09:42:38.333Z,28.13
2023-04-17T09:43:38.336Z,27.79
2023-04-17T09:44:38.332Z,28.21
2023-04-17T09:45:38.338Z,28.13
2023-04-17T09:46:38.827Z,28.09
2023-04-17T09:47:38.397Z,28.39
2023-04-17T09:48:38.301Z,28.52
2023-04-17T09:49:38.305Z,28.59
2023-04-17T09:50:39.098Z,29.06
2023-04-17T09:51:38.312Z,28.80
2023-04-17T09:52:38.284Z,28.88
2023-04-17T09:53:38.270Z,28.77
2023-04-17T09:54:38.510Z,28.73
2023-04-17T09:55:38.496Z,28.73
2023-04-17T09:56:38.356Z,28.64
2023-04-17T09:57:38.388Z,28.59
2023-04-17T09:58:38.420Z,28.60
2023-04-17T09:59:38.432Z,28.59
2023-04-17T10:00:38.479Z,28.62
2023-04-17T10:01:38.598Z,28.67
2023-04-17T10:02:38.706Z,28.61
2023-04-17T10:03:38.695Z,28.65
2023-04-17T10:04:38.660Z,28.71
2023-04-17T10:05:38.650Z,28.67
2023-04-17T10:06:38.675Z,28.70
2023-04-17T10:07:38.700Z,28.69
2023-04-17T10:08:38.709Z,28.67
2023-04-17T10:09:38.744Z,28.88
2023-04-17T10:10:38.814Z,28.93
2023-04-17T10:11:38.847Z,28.88
2023-04-17T10:12:38.857Z,27.77
2023-04-17T10:13:38.884Z,28.19
2023-04-17T10:14:38.929Z,27.22
2023-04-17T10:15:38.917Z,27.94
2023-04-17T10:16:39.043Z,27.52
2023-04-17T10:17:39.048Z,27.13
2023-04-17T10:18:39.085Z,27.91
2023-04-17T10:19:39.132Z,27.56
2023-04-17T10:20:39.143Z,27.33
2023-04-17T10:21:39.131Z,27.18
2023-04-17T10:22:39.130Z,27.21
2023-04-17T10:23:39.113Z,27.39
2023-04-17T10:24:39.120Z,27.63
2023-04-17T10:25:39.115Z,27.26
2023-04-17T10:26:39.130Z,27.27
2023-04-17T10:27:39.102Z,27.91
2023-04-17T10:28:39.114Z,27.99
2023-04-17T10:29:39.101Z,27.90
2023-04-17T10:31:39.128Z,27.92
2023-04-17T10:32:39.122Z,27.48
2023-04-17T10:33:39.104Z,27.86
2023-04-17T10:34:39.950Z,27.07
2023-04-17T10:35:39.076Z,27.94
2023-04-17T10:36:39.075Z,27.34
2023-04-17T10:37:39.103Z,28.03
2023-04-17T10:38:39.083Z,28.23
2023-04-17T10:39:39.110Z,28.39
2023-04-17T10:40:39.074Z,27.85
2023-04-17T10:41:39.076Z,28.42
2023-04-17T10:42:39.052Z,28.21
2023-04-17T10:43:39.043Z,27.81
2023-04-17T10:44:39.053Z,27.90
2023-04-17T10:45:39.068Z,27.91
2023-04-17T10:46:39.036Z,27.80
2023-04-17T10:47:39.050Z,27.92
2023-04-17T10:48:39.169Z,27.87
2023-04-17T10:49:39.021Z,28.16
2023-04-17T10:50:39.031Z,28.00
2023-04-17T10:51:39.026Z,28.39
2023-04-17T10:52:39.084Z,28.17
2023-04-17T10:53:39.039Z,28.38
2023-04-17T10:54:39.004Z,28.11
2023-04-17T10:55:39.006Z,28.56
2023-04-17T10:56:38.989Z,28.20
2023-04-17T10:57:38.993Z,28.55
2023-04-17T10:58:38.994Z,28.07
2023-04-17T10:59:38.965Z,27.85
2023-04-17T11:00:38.985Z,27.81
2023-04-17T11:01:39.009Z,27.36
2023-04-17T11:02:39.062Z,27.87
2023-04-17T11:03:39.020Z,27.94
2023-04-17T11:04:39.007Z,28.06
2023-04-17T11:05:38.932Z,28.36
2023-04-17T11:06:38.935Z,27.87
2023-04-17T11:07:38.929Z,28.24
2023-04-17T11:08:38.936Z,28.20
2023-04-17T11:09:38.914Z,28.35
2023-04-17T11:10:38.987Z,28.22
2023-04-17T11:11:44.234Z,28.19
2023-04-17T11:12:39.915Z,28.28
2023-04-17T11:13:38.921Z,28.38
2023-04-17T11:14:38.897Z,28.56
2023-04-17T11:15:38.885Z,28.59
2023-04-17T11:16:38.936Z,28.65
2023-04-17T11:17:38.913Z,27.82
2023-04-17T11:18:38.865Z,28.49
2023-04-17T11:19:38.854Z,28.26
2023-04-17T11:20:38.857Z,28.64
2023-04-17T11:21:38.844Z,28.41
2023-04-17T11:22:38.835Z,28.67
2023-04-17T11:23:38.827Z,28.55
2023-04-17T11:24:38.809Z,28.58
2023-04-17T11:25:38.810Z,28.04
2023-04-17T11:26:38.797Z,28.97
2023-04-17T11:27:38.785Z,28.67
2023-04-17T11:28:38.833Z,27.94
2023-04-17T11:29:38.867Z,27.85
2023-04-17T11:30:38.976Z,27.66
2023-04-17T11:31:39.070Z,27.61
2023-04-17T11:32:39.051Z,27.21
2023-04-17T11:33:39.083Z,27.09
2023-04-17T11:34:39.191Z,26.66
2023-04-17T11:35:39.199Z,26.84
2023-04-17T11:36:39.186Z,26.87
2023-04-17T11:37:39.186Z,26.76
2023-04-17T11:38:39.197Z,26.62
2023-04-17T11:39:39.211Z,26.44
2023-04-17T11:40:39.247Z,26.33
2023-04-17T11:41:39.321Z,26.19
2023-04-17T11:42:39.289Z,26.27
2023-04-17T11:43:39.312Z,26.26
2023-04-17T11:44:39.343Z,25.99
2023-04-17T11:45:39.359Z,25.93
2023-04-17T11:46:39.493Z,26.17
2023-04-17T11:47:39.456Z,26.37
2023-04-17T11:48:39.400Z,27.28
2023-04-17T11:49:39.399Z,27.59
2023-04-17T11:50:39.421Z,28.13
2023-04-17T11:51:39.469Z,28.11
2023-04-17T11:52:39.524Z,27.79
2023-04-17T11:53:39.586Z,28.02
2023-04-17T11:54:39.648Z,27.90
2023-04-17T11:55:39.656Z,27.76
2023-04-17T11:56:39.697Z,27.60
2023-04-17T11:57:39.739Z,27.61
2023-04-17T11:58:39.754Z,27.97
2023-04-17T11:59:39.794Z,27.77
2023-04-17T12:00:39.824Z,27.53
2023-04-17T12:01:39.838Z,27.42
2023-04-17T12:02:39.952Z,27.36
2023-04-17T12:03:41.099Z,27.25
2023-04-17T12:04:40.419Z,27.24
2023-04-17T12:05:39.942Z,27.21
2023-04-17T12:06:39.940Z,27.08
2023-04-17T12:07:39.908Z,27.07
2023-04-17T12:08:39.943Z,26.93
2023-04-17T12:09:39.950Z,26.93
2023-04-17T12:10:39.988Z,26.92
2023-04-17T12:11:39.995Z,26.84
2023-04-17T12:12:39.987Z,26.74
2023-04-17T12:13:39.998Z,26.67
2023-04-17T12:14:40.021Z,26.71
2023-04-17T12:15:40.034Z,26.66
2023-04-17T12:16:40.181Z,26.60
2023-04-17T12:17:40.199Z,26.63
2023-04-17T12:18:40.064Z,26.58
2023-04-17T12:19:40.064Z,26.56
2023-04-17T12:20:40.065Z,26.49
2023-04-17T12:21:40.079Z,26.47
2023-04-17T12:22:40.085Z,26.43
2023-04-17T12:23:40.112Z,26.42
2023-04-17T12:24:40.103Z,26.30
2023-04-17T12:25:40.110Z,26.23
2023-04-17T12:26:40.120Z,26.25
2023-04-17T12:27:40.145Z,26.24
2023-04-17T12:28:40.134Z,26.15
2023-04-17T12:30:40.308Z,26.18
2023-04-17T12:31:40.370Z,26.20
2023-04-17T12:32:40.324Z,26.17
2023-04-17T12:33:40.291Z,26.13
2023-04-17T12:34:40.296Z,26.10
2023-04-17T12:35:40.294Z,26.08
2023-04-17T12:36:40.361Z,26.05
2023-04-17T12:37:40.301Z,26.05
2023-04-17T12:38:40.301Z,26.00
2023-04-17T12:39:40.312Z,26.01
2023-04-17T12:40:40.293Z,26.03
2023-04-17T12:41:40.311Z,26.03
2023-04-17T12:42:48.702Z,26.01
2023-04-17T12:43:41.302Z,26.03
2023-04-17T12:44:40.289Z,26.00
2023-04-17T12:45:42.299Z,26.02
2023-04-17T12:46:40.314Z,26.05
2023-04-17T12:47:40.331Z,26.06
2023-04-17T12:48:40.304Z,26.05
2023-04-17T12:49:40.318Z,26.06
2023-04-17T12:50:40.302Z,26.07
2023-04-17T12:51:40.354Z,26.09
2023-04-17T12:52:40.434Z,26.06
2023-04-17T12:53:40.462Z,26.09
2023-04-17T12:54:40.524Z,26.09